sensor_id;sensor_type;location;lat;lon;timestamp;P1;durP1;ratioP1;P2;durP2;ratioP2
4638;SDS011;2332;38.646;-9.154;2023-02-26T00:00:44;37.10;;;18.50;;
4638;SDS011;2332;38.646;-9.154;2023-02-26T00:03:10;36.67;;;19.10;;
4638;SDS011;2332;38.646;-9.154;2023-02-26T00:05:35;32.87;;;17.10;;
4638;SDS011;2332;38.646;-9.154;2023-02-26T00:08:01;32.37;;;19.67;;
4638;SDS011;2332;38.646;-9.154;2023-02-26T00:10:29;31.73;;;18.60;;
4638;SDS011;2332;38.646;-9.154;2023-02-26T00:12:55;31.37;;;16.70;;
4638;SDS011;2332;38.646;-9.154;2023-02-26T00:15:21;33.17;;;17.20;;
4638;SDS011;2332;38.646;-9.154;2023-02-26T00:17:48;31.20;;;14.27;;
4638;SDS011;2332;38.646;-9.154;2023-02-26T00:20:14;26.93;;;13.83;;
4638;SDS011;2332;38.646;-9.154;2023-02-26T00:22:42;20.00;;;10.90;;
4638;SDS011;2332;38.646;-9.154;2023-02-26T00:25:08;25.97;;;11.40;;
4638;SDS011;2332;38.646;-9.154;2023-02-26T00:27:34;25.90;;;12.37;;
4638;SDS011;2332;38.646;-9.154;2023-02-26T00:30:00;29.43;;;13.47;;
4638;SDS011;2332;38.646;-9.154;2023-02-26T00:32:26;27.40;;;13.50;;
4638;SDS011;2332;38.646;-9.154;2023-02-26T00:34:51;33.83;;;14.90;;
4638;SDS011;2332;38.646;-9.154;2023-02-26T00:42:10;30.70;;;19.47;;
4638;SDS011;2332;38.646;-9.154;2023-02-26T00:44:36;39.03;;;19.80;;
4638;SDS011;2332;38.646;-9.154;2023-02-26T00:50:11;50.60;;;25.90;;
4638;SDS011;2332;38.646;-9.154;2023-02-26T00:52:35;50.90;;;25.97;;
4638;SDS011;2332;38.646;-9.154;2023-02-26T00:55:03;48.07;;;24.67;;
4638;SDS011;2332;38.646;-9.154;2023-02-26T00:57:28;45.10;;;23.47;;
4638;SDS011;2332;38.646;-9.154;2023-02-26T00:59:54;38.50;;;22.03;;
4638;SDS011;2332;38.646;-9.154;2023-02-26T01:02:19;47.60;;;22.60;;
4638;SDS011;2332;38.646;-9.154;2023-02-26T01:04:44;43.43;;;25.20;;
4638;SDS011;2332;38.646;-9.154;2023-02-26T01:07:10;56.70;;;28.80;;
4638;SDS011;2332;38.646;-9.154;2023-02-26T01:09:37;51.10;;;26.33;;
4638;SDS011;2332;38.646;-9.154;2023-02-26T01:12:05;42.10;;;25.10;;
4638;SDS011;2332;38.646;-9.154;2023-02-26T01:14:31;62.33;;;32.53;;
4638;SDS011;2332;38.646;-9.154;2023-02-26T01:17:05;49.07;;;26.27;;
4638;SDS011;2332;38.646;-9.154;2023-02-26T01:19:53;44.70;;;25.97;;
4638;SDS011;2332;38.646;-9.154;2023-02-26T01:22:22;58.20;;;29.60;;
4638;SDS011;2332;38.646;-9.154;2023-02-26T01:24:52;46.67;;;25.80;;
4638;SDS011;2332;38.646;-9.154;2023-02-26T01:27:18;42.47;;;25.00;;
4638;SDS011;2332;38.646;-9.154;2023-02-26T01:29:43;42.20;;;23.97;;
4638;SDS011;2332;38.646;-9.154;2023-02-26T01:32:21;50.13;;;22.30;;
4638;SDS011;2332;38.646;-9.154;2023-02-26T01:37:34;41.10;;;22.60;;
4638;SDS011;2332;38.646;-9.154;2023-02-26T01:42:28;40.23;;;22.67;;
4638;SDS011;2332;38.646;-9.154;2023-02-26T01:44:58;45.33;;;25.60;;
4638;SDS011;2332;38.646;-9.154;2023-02-26T01:49:53;39.13;;;21.73;;
4638;SDS011;2332;38.646;-9.154;2023-02-26T01:55:07;43.27;;;21.23;;
4638;SDS011;2332;38.646;-9.154;2023-02-26T01:57:33;44.60;;;22.80;;
4638;SDS011;2332;38.646;-9.154;2023-02-26T01:59:59;39.57;;;22.80;;
4638;SDS011;2332;38.646;-9.154;2023-02-26T02:02:24;38.83;;;22.20;;
4638;SDS011;2332;38.646;-9.154;2023-02-26T02:04:50;37.27;;;23.10;;
4638;SDS011;2332;38.646;-9.154;2023-02-26T02:07:15;39.33;;;23.60;;
4638;SDS011;2332;38.646;-9.154;2023-02-26T02:09:41;46.37;;;23.83;;
4638;SDS011;2332;38.646;-9.154;2023-02-26T02:12:13;41.83;;;23.10;;
4638;SDS011;2332;38.646;-9.154;2023-02-26T02:25:19;35.20;;;21.77;;
4638;SDS011;2332;38.646;-9.154;2023-02-26T02:28:18;42.43;;;24.10;;
4638;SDS011;2332;38.646;-9.154;2023-02-26T02:33:35;48.50;;;26.07;;
4638;SDS011;2332;38.646;-9.154;2023-02-26T02:36:06;42.47;;;24.93;;
4638;SDS011;2332;38.646;-9.154;2023-02-26T02:38:51;48.97;;;24.27;;
4638;SDS011;2332;38.646;-9.154;2023-02-26T02:41:21;47.07;;;23.90;;
4638;SDS011;2332;38.646;-9.154;2023-02-26T02:43:48;41.23;;;23.83;;
4638;SDS011;2332;38.646;-9.154;2023-02-26T02:46:19;47.83;;;25.20;;
4638;SDS011;2332;38.646;-9.154;2023-02-26T02:48:59;48.03;;;25.17;;
4638;SDS011;2332;38.646;-9.154;2023-02-26T02:54:02;43.30;;;25.77;;
4638;SDS011;2332;38.646;-9.154;2023-02-26T02:56:51;54.13;;;28.37;;
4638;SDS011;2332;38.646;-9.154;2023-02-26T02:59:38;36.33;;;23.00;;
4638;SDS011;2332;38.646;-9.154;2023-02-26T03:04:38;42.83;;;25.83;;
4638;SDS011;2332;38.646;-9.154;2023-02-26T03:07:05;45.77;;;25.80;;
4638;SDS011;2332;38.646;-9.154;2023-02-26T03:09:31;53.07;;;29.10;;
4638;SDS011;2332;38.646;-9.154;2023-02-26T03:11:56;46.93;;;28.40;;
4638;SDS011;2332;38.646;-9.154;2023-02-26T03:14:22;49.43;;;28.07;;
4638;SDS011;2332;38.646;-9.154;2023-02-26T03:22:17;46.73;;;26.97;;
4638;SDS011;2332;38.646;-9.154;2023-02-26T03:24:57;47.93;;;25.70;;
4638;SDS011;2332;38.646;-9.154;2023-02-26T03:30:03;46.33;;;26.30;;
4638;SDS011;2332;38.646;-9.154;2023-02-26T03:32:31;46.60;;;25.90;;
4638;SDS011;2332;38.646;-9.154;2023-02-26T03:35:15;45.80;;;26.40;;
4638;SDS011;2332;38.646;-9.154;2023-02-26T03:37:45;44.83;;;26.80;;
4638;SDS011;2332;38.646;-9.154;2023-02-26T03:40:19;48.97;;;24.93;;
4638;SDS011;2332;38.646;-9.154;2023-02-26T03:45:17;38.53;;;24.90;;
4638;SDS011;2332;38.646;-9.154;2023-02-26T03:47:44;37.63;;;25.60;;
4638;SDS011;2332;38.646;-9.154;2023-02-26T03:50:12;38.50;;;24.20;;
4638;SDS011;2332;38.646;-9.154;2023-02-26T03:52:40;43.13;;;25.03;;
4638;SDS011;2332;38.646;-9.154;2023-02-26T03:55:14;49.73;;;26.57;;
4638;SDS011;2332;38.646;-9.154;2023-02-26T03:57:41;43.57;;;24.17;;
4638;SDS011;2332;38.646;-9.154;2023-02-26T04:00:07;40.23;;;25.07;;
4638;SDS011;2332;38.646;-9.154;2023-02-26T04:02:39;38.53;;;25.20;;
4638;SDS011;2332;38.646;-9.154;2023-02-26T04:05:10;45.13;;;25.73;;
4638;SDS011;2332;38.646;-9.154;2023-02-26T04:07:36;49.13;;;26.13;;
4638;SDS011;2332;38.646;-9.154;2023-02-26T04:10:03;44.47;;;24.67;;
4638;SDS011;2332;38.646;-9.154;2023-02-26T04:12:29;42.63;;;25.00;;
4638;SDS011;2332;38.646;-9.154;2023-02-26T04:14:54;40.30;;;25.63;;
4638;SDS011;2332;38.646;-9.154;2023-02-26T04:17:20;43.10;;;23.87;;
4638;SDS011;2332;38.646;-9.154;2023-02-26T04:19:46;36.90;;;23.10;;
4638;SDS011;2332;38.646;-9.154;2023-02-26T04:22:11;35.23;;;21.70;;
4638;SDS011;2332;38.646;-9.154;2023-02-26T04:24:37;39.40;;;21.03;;
4638;SDS011;2332;38.646;-9.154;2023-02-26T04:27:02;36.73;;;21.83;;
4638;SDS011;2332;38.646;-9.154;2023-02-26T04:29:28;31.20;;;20.57;;
4638;SDS011;2332;38.646;-9.154;2023-02-26T04:31:53;37.87;;;20.37;;
4638;SDS011;2332;38.646;-9.154;2023-02-26T04:34:18;26.83;;;19.33;;
4638;SDS011;2332;38.646;-9.154;2023-02-26T04:36:44;31.43;;;19.80;;
4638;SDS011;2332;38.646;-9.154;2023-02-26T04:39:09;30.43;;;18.00;;
4638;SDS011;2332;38.646;-9.154;2023-02-26T04:41:35;38.00;;;19.23;;
4638;SDS011;2332;38.646;-9.154;2023-02-26T04:44:01;32.13;;;19.17;;
4638;SDS011;2332;38.646;-9.154;2023-02-26T04:46:28;32.53;;;19.43;;
4638;SDS011;2332;38.646;-9.154;2023-02-26T04:48:53;34.00;;;19.83;;
4638;SDS011;2332;38.646;-9.154;2023-02-26T04:51:18;41.17;;;20.53;;
4638;SDS011;2332;38.646;-9.154;2023-02-26T04:53:44;29.10;;;18.10;;
4638;SDS011;2332;38.646;-9.154;2023-02-26T04:56:09;27.63;;;14.80;;
4638;SDS011;2332;38.646;-9.154;2023-02-26T04:58:35;30.23;;;15.10;;
4638;SDS011;2332;38.646;-9.154;2023-02-26T05:01:00;20.00;;;12.90;;
4638;SDS011;2332;38.646;-9.154;2023-02-26T05:03:25;27.57;;;13.63;;
4638;SDS011;2332;38.646;-9.154;2023-02-26T05:05:51;22.13;;;12.17;;
4638;SDS011;2332;38.646;-9.154;2023-02-26T05:08:16;25.30;;;12.37;;
4638;SDS011;2332;38.646;-9.154;2023-02-26T05:10:41;27.43;;;11.33;;
4638;SDS011;2332;38.646;-9.154;2023-02-26T05:13:07;23.33;;;11.50;;
4638;SDS011;2332;38.646;-9.154;2023-02-26T05:15:32;27.17;;;12.97;;
4638;SDS011;2332;38.646;-9.154;2023-02-26T05:17:58;16.50;;;10.67;;
4638;SDS011;2332;38.646;-9.154;2023-02-26T05:20:23;20.90;;;11.63;;
4638;SDS011;2332;38.646;-9.154;2023-02-26T05:22:48;17.83;;;10.80;;
4638;SDS011;2332;38.646;-9.154;2023-02-26T05:25:14;19.07;;;10.43;;
4638;SDS011;2332;38.646;-9.154;2023-02-26T05:27:40;17.60;;;11.03;;
4638;SDS011;2332;38.646;-9.154;2023-02-26T05:30:07;21.00;;;10.80;;
4638;SDS011;2332;38.646;-9.154;2023-02-26T05:32:32;21.80;;;13.37;;
4638;SDS011;2332;38.646;-9.154;2023-02-26T05:34:58;26.63;;;11.23;;
4638;SDS011;2332;38.646;-9.154;2023-02-26T05:37:23;20.33;;;12.20;;
4638;SDS011;2332;38.646;-9.154;2023-02-26T05:39:49;23.00;;;12.60;;
4638;SDS011;2332;38.646;-9.154;2023-02-26T05:42:14;22.40;;;14.17;;
4638;SDS011;2332;38.646;-9.154;2023-02-26T05:44:40;21.17;;;14.33;;
4638;SDS011;2332;38.646;-9.154;2023-02-26T05:47:05;27.83;;;14.20;;
4638;SDS011;2332;38.646;-9.154;2023-02-26T05:49:31;25.67;;;13.70;;
4638;SDS011;2332;38.646;-9.154;2023-02-26T05:51:56;26.37;;;13.50;;
4638;SDS011;2332;38.646;-9.154;2023-02-26T05:54:21;18.87;;;12.40;;
4638;SDS011;2332;38.646;-9.154;2023-02-26T05:56:47;22.37;;;12.40;;
4638;SDS011;2332;38.646;-9.154;2023-02-26T05:59:12;27.17;;;12.50;;
4638;SDS011;2332;38.646;-9.154;2023-02-26T06:01:38;23.10;;;11.90;;
4638;SDS011;2332;38.646;-9.154;2023-02-26T06:04:04;18.83;;;11.77;;
4638;SDS011;2332;38.646;-9.154;2023-02-26T06:06:29;19.03;;;11.00;;
4638;SDS011;2332;38.646;-9.154;2023-02-26T06:08:55;15.40;;;10.77;;
4638;SDS011;2332;38.646;-9.154;2023-02-26T06:11:21;21.07;;;11.70;;
4638;SDS011;2332;38.646;-9.154;2023-02-26T06:13:47;21.10;;;11.97;;
4638;SDS011;2332;38.646;-9.154;2023-02-26T06:16:12;35.70;;;14.47;;
4638;SDS011;2332;38.646;-9.154;2023-02-26T06:18:38;22.50;;;12.30;;
4638;SDS011;2332;38.646;-9.154;2023-02-26T06:21:03;18.13;;;11.07;;
4638;SDS011;2332;38.646;-9.154;2023-02-26T06:23:29;22.50;;;10.77;;
4638;SDS011;2332;38.646;-9.154;2023-02-26T06:25:54;23.73;;;14.53;;
4638;SDS011;2332;38.646;-9.154;2023-02-26T06:28:19;25.17;;;13.70;;
4638;SDS011;2332;38.646;-9.154;2023-02-26T06:30:45;26.83;;;14.67;;
4638;SDS011;2332;38.646;-9.154;2023-02-26T06:33:10;25.37;;;13.40;;
4638;SDS011;2332;38.646;-9.154;2023-02-26T06:35:36;25.53;;;14.00;;
4638;SDS011;2332;38.646;-9.154;2023-02-26T06:38:02;25.47;;;14.23;;
4638;SDS011;2332;38.646;-9.154;2023-02-26T06:40:27;26.90;;;15.00;;
4638;SDS011;2332;38.646;-9.154;2023-02-26T06:42:53;19.80;;;14.50;;
4638;SDS011;2332;38.646;-9.154;2023-02-26T06:45:18;23.80;;;15.30;;
4638;SDS011;2332;38.646;-9.154;2023-02-26T06:47:44;27.50;;;13.23;;
4638;SDS011;2332;38.646;-9.154;2023-02-26T06:50:09;25.93;;;12.73;;
4638;SDS011;2332;38.646;-9.154;2023-02-26T06:52:35;19.53;;;12.73;;
4638;SDS011;2332;38.646;-9.154;2023-02-26T06:55:01;22.43;;;13.30;;
4638;SDS011;2332;38.646;-9.154;2023-02-26T06:57:26;22.53;;;13.83;;
4638;SDS011;2332;38.646;-9.154;2023-02-26T06:59:52;21.43;;;13.33;;
4638;SDS011;2332;38.646;-9.154;2023-02-26T07:02:18;23.17;;;13.50;;
4638;SDS011;2332;38.646;-9.154;2023-02-26T07:04:43;24.20;;;14.20;;
4638;SDS011;2332;38.646;-9.154;2023-02-26T07:07:09;24.70;;;14.17;;
4638;SDS011;2332;38.646;-9.154;2023-02-26T07:09:34;23.60;;;13.73;;
4638;SDS011;2332;38.646;-9.154;2023-02-26T07:12:00;19.73;;;12.60;;
4638;SDS011;2332;38.646;-9.154;2023-02-26T07:14:25;25.80;;;15.90;;
4638;SDS011;2332;38.646;-9.154;2023-02-26T07:16:50;24.23;;;15.17;;
4638;SDS011;2332;38.646;-9.154;2023-02-26T07:19:16;25.80;;;15.50;;
4638;SDS011;2332;38.646;-9.154;2023-02-26T07:21:41;23.70;;;15.47;;
4638;SDS011;2332;38.646;-9.154;2023-02-26T07:24:07;23.03;;;14.37;;
4638;SDS011;2332;38.646;-9.154;2023-02-26T07:26:32;26.53;;;15.53;;
4638;SDS011;2332;38.646;-9.154;2023-02-26T07:28:57;20.87;;;14.70;;
4638;SDS011;2332;38.646;-9.154;2023-02-26T07:31:23;29.70;;;15.33;;
4638;SDS011;2332;38.646;-9.154;2023-02-26T07:33:48;27.37;;;16.80;;
4638;SDS011;2332;38.646;-9.154;2023-02-26T07:36:14;29.80;;;16.73;;
4638;SDS011;2332;38.646;-9.154;2023-02-26T07:38:39;28.17;;;17.17;;
4638;SDS011;2332;38.646;-9.154;2023-02-26T07:41:04;29.00;;;17.20;;
4638;SDS011;2332;38.646;-9.154;2023-02-26T07:43:30;29.07;;;18.07;;
4638;SDS011;2332;38.646;-9.154;2023-02-26T07:45:58;27.17;;;18.43;;
4638;SDS011;2332;38.646;-9.154;2023-02-26T07:48:23;30.60;;;19.90;;
4638;SDS011;2332;38.646;-9.154;2023-02-26T07:50:52;28.97;;;18.30;;
4638;SDS011;2332;38.646;-9.154;2023-02-26T07:53:18;34.20;;;20.53;;
4638;SDS011;2332;38.646;-9.154;2023-02-26T07:55:43;34.03;;;21.30;;
4638;SDS011;2332;38.646;-9.154;2023-02-26T07:58:08;37.73;;;22.00;;
4638;SDS011;2332;38.646;-9.154;2023-02-26T08:00:34;39.93;;;21.87;;
4638;SDS011;2332;38.646;-9.154;2023-02-26T08:02:59;38.07;;;22.07;;
4638;SDS011;2332;38.646;-9.154;2023-02-26T08:05:24;36.33;;;22.50;;
4638;SDS011;2332;38.646;-9.154;2023-02-26T08:07:50;53.20;;;20.97;;
4638;SDS011;2332;38.646;-9.154;2023-02-26T08:10:15;35.17;;;20.80;;
4638;SDS011;2332;38.646;-9.154;2023-02-26T08:12:41;34.77;;;19.27;;
4638;SDS011;2332;38.646;-9.154;2023-02-26T08:15:06;34.47;;;19.47;;
4638;SDS011;2332;38.646;-9.154;2023-02-26T08:17:32;26.70;;;17.73;;
4638;SDS011;2332;38.646;-9.154;2023-02-26T08:19:58;36.10;;;18.77;;
4638;SDS011;2332;38.646;-9.154;2023-02-26T08:22:23;34.37;;;20.03;;
4638;SDS011;2332;38.646;-9.154;2023-02-26T08:24:49;33.03;;;19.17;;
4638;SDS011;2332;38.646;-9.154;2023-02-26T08:27:14;31.23;;;19.40;;
4638;SDS011;2332;38.646;-9.154;2023-02-26T08:29:40;30.10;;;19.60;;
4638;SDS011;2332;38.646;-9.154;2023-02-26T08:32:05;33.20;;;20.10;;
4638;SDS011;2332;38.646;-9.154;2023-02-26T08:34:33;35.87;;;20.97;;
4638;SDS011;2332;38.646;-9.154;2023-02-26T08:36:59;28.77;;;20.57;;
4638;SDS011;2332;38.646;-9.154;2023-02-26T08:39:24;31.10;;;19.73;;
4638;SDS011;2332;38.646;-9.154;2023-02-26T08:41:50;30.20;;;19.60;;
4638;SDS011;2332;38.646;-9.154;2023-02-26T08:44:15;31.53;;;19.83;;
4638;SDS011;2332;38.646;-9.154;2023-02-26T08:46:40;30.50;;;19.17;;
4638;SDS011;2332;38.646;-9.154;2023-02-26T08:49:06;29.93;;;19.60;;
4638;SDS011;2332;38.646;-9.154;2023-02-26T08:51:31;28.07;;;19.77;;
4638;SDS011;2332;38.646;-9.154;2023-02-26T08:53:57;34.93;;;20.17;;
4638;SDS011;2332;38.646;-9.154;2023-02-26T08:56:22;34.83;;;19.93;;
4638;SDS011;2332;38.646;-9.154;2023-02-26T08:58:47;37.93;;;21.30;;
4638;SDS011;2332;38.646;-9.154;2023-02-26T09:01:13;33.50;;;20.37;;
4638;SDS011;2332;38.646;-9.154;2023-02-26T09:03:38;30.10;;;21.23;;
4638;SDS011;2332;38.646;-9.154;2023-02-26T09:06:04;33.30;;;19.43;;
4638;SDS011;2332;38.646;-9.154;2023-02-26T09:08:30;32.07;;;21.00;;
4638;SDS011;2332;38.646;-9.154;2023-02-26T09:11:01;32.40;;;21.00;;
4638;SDS011;2332;38.646;-9.154;2023-02-26T09:13:26;37.43;;;22.27;;
4638;SDS011;2332;38.646;-9.154;2023-02-26T09:15:52;35.27;;;21.20;;
4638;SDS011;2332;38.646;-9.154;2023-02-26T09:18:17;32.50;;;21.53;;
4638;SDS011;2332;38.646;-9.154;2023-02-26T09:20:43;29.20;;;20.70;;
4638;SDS011;2332;38.646;-9.154;2023-02-26T09:23:11;35.87;;;22.47;;
4638;SDS011;2332;38.646;-9.154;2023-02-26T09:25:37;35.63;;;20.97;;
4638;SDS011;2332;38.646;-9.154;2023-02-26T09:28:03;36.60;;;19.70;;
4638;SDS011;2332;38.646;-9.154;2023-02-26T09:30:28;28.33;;;18.63;;
4638;SDS011;2332;38.646;-9.154;2023-02-26T09:32:54;31.50;;;20.73;;
4638;SDS011;2332;38.646;-9.154;2023-02-26T09:35:19;30.53;;;19.93;;
4638;SDS011;2332;38.646;-9.154;2023-02-26T09:37:44;26.97;;;19.67;;
4638;SDS011;2332;38.646;-9.154;2023-02-26T09:40:24;36.20;;;20.23;;
4638;SDS011;2332;38.646;-9.154;2023-02-26T09:45:29;25.27;;;18.50;;
4638;SDS011;2332;38.646;-9.154;2023-02-26T09:47:56;30.33;;;18.40;;
4638;SDS011;2332;38.646;-9.154;2023-02-26T09:50:26;26.60;;;18.10;;
4638;SDS011;2332;38.646;-9.154;2023-02-26T09:52:54;20.60;;;16.23;;
4638;SDS011;2332;38.646;-9.154;2023-02-26T09:55:28;26.00;;;17.43;;
4638;SDS011;2332;38.646;-9.154;2023-02-26T09:58:01;26.23;;;18.20;;
4638;SDS011;2332;38.646;-9.154;2023-02-26T10:00:29;26.53;;;16.63;;
4638;SDS011;2332;38.646;-9.154;2023-02-26T10:02:59;21.10;;;16.53;;
4638;SDS011;2332;38.646;-9.154;2023-02-26T10:05:35;25.40;;;17.90;;
4638;SDS011;2332;38.646;-9.154;2023-02-26T10:08:07;23.50;;;17.37;;
4638;SDS011;2332;38.646;-9.154;2023-02-26T10:10:58;21.50;;;16.20;;
4638;SDS011;2332;38.646;-9.154;2023-02-26T10:13:42;20.50;;;15.70;;
4638;SDS011;2332;38.646;-9.154;2023-02-26T10:16:11;22.80;;;15.87;;
4638;SDS011;2332;38.646;-9.154;2023-02-26T10:18:39;25.47;;;15.07;;
4638;SDS011;2332;38.646;-9.154;2023-02-26T10:21:08;20.93;;;14.07;;
4638;SDS011;2332;38.646;-9.154;2023-02-26T10:31:29;13.83;;;10.47;;
4638;SDS011;2332;38.646;-9.154;2023-02-26T10:36:46;10.57;;;9.47;;
4638;SDS011;2332;38.646;-9.154;2023-02-26T10:39:19;13.77;;;10.40;;
4638;SDS011;2332;38.646;-9.154;2023-02-26T10:41:45;14.03;;;9.10;;
4638;SDS011;2332;38.646;-9.154;2023-02-26T10:44:13;10.07;;;8.97;;
4638;SDS011;2332;38.646;-9.154;2023-02-26T10:51:46;13.40;;;9.73;;
4638;SDS011;2332;38.646;-9.154;2023-02-26T10:54:15;13.50;;;10.40;;
4638;SDS011;2332;38.646;-9.154;2023-02-26T10:56:43;19.20;;;13.30;;
4638;SDS011;2332;38.646;-9.154;2023-02-26T10:59:08;23.30;;;14.77;;
4638;SDS011;2332;38.646;-9.154;2023-02-26T11:01:34;27.00;;;18.00;;
4638;SDS011;2332;38.646;-9.154;2023-02-26T11:04:04;24.33;;;16.77;;
4638;SDS011;2332;38.646;-9.154;2023-02-26T11:06:33;23.80;;;17.50;;
4638;SDS011;2332;38.646;-9.154;2023-02-26T11:08:59;28.60;;;19.20;;
4638;SDS011;2332;38.646;-9.154;2023-02-26T11:11:35;28.17;;;18.83;;
4638;SDS011;2332;38.646;-9.154;2023-02-26T11:14:01;26.97;;;18.90;;
4638;SDS011;2332;38.646;-9.154;2023-02-26T11:16:27;23.73;;;16.40;;
4638;SDS011;2332;38.646;-9.154;2023-02-26T11:18:53;24.27;;;16.20;;
4638;SDS011;2332;38.646;-9.154;2023-02-26T11:21:24;21.20;;;14.87;;
4638;SDS011;2332;38.646;-9.154;2023-02-26T11:23:52;20.27;;;15.40;;
4638;SDS011;2332;38.646;-9.154;2023-02-26T11:26:20;20.37;;;15.50;;
4638;SDS011;2332;38.646;-9.154;2023-02-26T11:28:52;24.20;;;16.07;;
4638;SDS011;2332;38.646;-9.154;2023-02-26T11:31:19;20.30;;;15.90;;
4638;SDS011;2332;38.646;-9.154;2023-02-26T11:34:04;23.20;;;15.40;;
4638;SDS011;2332;38.646;-9.154;2023-02-26T11:36:30;23.53;;;15.37;;
4638;SDS011;2332;38.646;-9.154;2023-02-26T11:38:57;18.83;;;14.07;;
4638;SDS011;2332;38.646;-9.154;2023-02-26T11:41:23;19.07;;;14.07;;
4638;SDS011;2332;38.646;-9.154;2023-02-26T11:43:55;17.50;;;14.20;;
4638;SDS011;2332;38.646;-9.154;2023-02-26T11:46:23;21.20;;;14.30;;
4638;SDS011;2332;38.646;-9.154;2023-02-26T11:48:49;18.27;;;12.97;;
4638;SDS011;2332;38.646;-9.154;2023-02-26T11:51:19;17.60;;;12.53;;
4638;SDS011;2332;38.646;-9.154;2023-02-26T11:53:49;18.40;;;12.50;;
4638;SDS011;2332;38.646;-9.154;2023-02-26T11:56:21;17.77;;;12.43;;
4638;SDS011;2332;38.646;-9.154;2023-02-26T11:58:49;18.03;;;12.90;;
4638;SDS011;2332;38.646;-9.154;2023-02-26T12:01:15;16.13;;;12.33;;
4638;SDS011;2332;38.646;-9.154;2023-02-26T12:03:43;18.50;;;13.10;;
4638;SDS011;2332;38.646;-9.154;2023-02-26T12:06:17;17.57;;;12.17;;
4638;SDS011;2332;38.646;-9.154;2023-02-26T12:08:43;16.20;;;11.07;;
4638;SDS011;2332;38.646;-9.154;2023-02-26T12:13:44;13.60;;;10.90;;
4638;SDS011;2332;38.646;-9.154;2023-02-26T12:21:25;14.27;;;11.27;;
4638;SDS011;2332;38.646;-9.154;2023-02-26T12:24:14;14.77;;;11.33;;
4638;SDS011;2332;38.646;-9.154;2023-02-26T12:29:22;16.43;;;11.20;;
4638;SDS011;2332;38.646;-9.154;2023-02-26T12:37:06;14.83;;;10.87;;
4638;SDS011;2332;38.646;-9.154;2023-02-26T12:39:54;12.93;;;11.20;;
4638;SDS011;2332;38.646;-9.154;2023-02-26T12:50:31;12.37;;;10.57;;
4638;SDS011;2332;38.646;-9.154;2023-02-26T12:52:41;13.53;;;11.10;;
4638;SDS011;2332;38.646;-9.154;2023-02-26T13:05:13;12.27;;;9.80;;
4638;SDS011;2332;38.646;-9.154;2023-02-26T13:07:46;13.53;;;10.30;;
4638;SDS011;2332;38.646;-9.154;2023-02-26T13:10:28;13.67;;;10.23;;
4638;SDS011;2332;38.646;-9.154;2023-02-26T13:17:59;14.50;;;10.97;;
4638;SDS011;2332;38.646;-9.154;2023-02-26T13:20:26;15.73;;;11.10;;
4638;SDS011;2332;38.646;-9.154;2023-02-26T13:22:58;11.53;;;9.57;;
4638;SDS011;2332;38.646;-9.154;2023-02-26T13:27:50;10.53;;;9.00;;
4638;SDS011;2332;38.646;-9.154;2023-02-26T13:30:19;10.83;;;8.80;;
4638;SDS011;2332;38.646;-9.154;2023-02-26T13:32:46;13.60;;;9.30;;
4638;SDS011;2332;38.646;-9.154;2023-02-26T13:35:17;11.30;;;7.90;;
4638;SDS011;2332;38.646;-9.154;2023-02-26T13:37:48;10.00;;;7.73;;
4638;SDS011;2332;38.646;-9.154;2023-02-26T13:50:36;6.33;;;5.50;;
4638;SDS011;2332;38.646;-9.154;2023-02-26T13:56:04;3.70;;;3.40;;
4638;SDS011;2332;38.646;-9.154;2023-02-26T13:58:35;5.53;;;4.40;;
4638;SDS011;2332;38.646;-9.154;2023-02-26T14:03:51;3.93;;;3.70;;
4638;SDS011;2332;38.646;-9.154;2023-02-26T14:08:44;2.47;;;2.30;;
4638;SDS011;2332;38.646;-9.154;2023-02-26T14:11:55;3.33;;;2.00;;
4638;SDS011;2332;38.646;-9.154;2023-02-26T14:14:13;3.63;;;2.57;;
4638;SDS011;2332;38.646;-9.154;2023-02-26T14:16:41;6.27;;;1.80;;
4638;SDS011;2332;38.646;-9.154;2023-02-26T14:21:47;4.80;;;4.40;;
4638;SDS011;2332;38.646;-9.154;2023-02-26T14:24:14;3.53;;;3.20;;
4638;SDS011;2332;38.646;-9.154;2023-02-26T14:26:43;5.73;;;3.27;;
4638;SDS011;2332;38.646;-9.154;2023-02-26T14:29:13;7.50;;;3.50;;
4638;SDS011;2332;38.646;-9.154;2023-02-26T14:34:50;2.50;;;2.30;;
4638;SDS011;2332;38.646;-9.154;2023-02-26T14:37:18;4.57;;;2.40;;
4638;SDS011;2332;38.646;-9.154;2023-02-26T14:42:15;4.10;;;2.40;;
4638;SDS011;2332;38.646;-9.154;2023-02-26T14:44:43;1.90;;;1.80;;
4638;SDS011;2332;38.646;-9.154;2023-02-26T14:47:09;5.13;;;1.73;;
4638;SDS011;2332;38.646;-9.154;2023-02-26T14:49:36;2.30;;;2.10;;
4638;SDS011;2332;38.646;-9.154;2023-02-26T14:57:40;3.20;;;2.70;;
4638;SDS011;2332;38.646;-9.154;2023-02-26T15:00:11;8.40;;;4.23;;
4638;SDS011;2332;38.646;-9.154;2023-02-26T15:03:02;5.20;;;4.10;;
4638;SDS011;2332;38.646;-9.154;2023-02-26T15:18:57;2.83;;;2.10;;
4638;SDS011;2332;38.646;-9.154;2023-02-26T15:22:11;2.17;;;1.87;;
4638;SDS011;2332;38.646;-9.154;2023-02-26T15:24:14;2.03;;;1.93;;
4638;SDS011;2332;38.646;-9.154;2023-02-26T15:26:46;4.40;;;2.53;;
4638;SDS011;2332;38.646;-9.154;2023-02-26T15:29:12;4.27;;;3.20;;
4638;SDS011;2332;38.646;-9.154;2023-02-26T15:31:43;2.67;;;2.47;;
4638;SDS011;2332;38.646;-9.154;2023-02-26T15:34:12;2.57;;;2.37;;
4638;SDS011;2332;38.646;-9.154;2023-02-26T15:36:43;1.93;;;1.77;;
4638;SDS011;2332;38.646;-9.154;2023-02-26T15:39:09;2.63;;;2.50;;
4638;SDS011;2332;38.646;-9.154;2023-02-26T15:41:34;2.73;;;2.37;;
4638;SDS011;2332;38.646;-9.154;2023-02-26T15:44:06;3.57;;;2.43;;
4638;SDS011;2332;38.646;-9.154;2023-02-26T15:46:35;6.37;;;2.37;;
4638;SDS011;2332;38.646;-9.154;2023-02-26T15:49:04;5.00;;;3.70;;
4638;SDS011;2332;38.646;-9.154;2023-02-26T15:51:30;5.43;;;4.10;;
4638;SDS011;2332;38.646;-9.154;2023-02-26T15:53:56;3.37;;;3.03;;
4638;SDS011;2332;38.646;-9.154;2023-02-26T15:56:31;4.97;;;4.53;;
4638;SDS011;2332;38.646;-9.154;2023-02-26T15:58:57;5.87;;;4.77;;
4638;SDS011;2332;38.646;-9.154;2023-02-26T16:01:24;6.60;;;4.03;;
4638;SDS011;2332;38.646;-9.154;2023-02-26T16:03:51;5.27;;;3.97;;
4638;SDS011;2332;38.646;-9.154;2023-02-26T16:06:27;3.90;;;3.20;;
4638;SDS011;2332;38.646;-9.154;2023-02-26T16:08:53;5.13;;;3.43;;
4638;SDS011;2332;38.646;-9.154;2023-02-26T16:11:18;5.90;;;4.13;;
4638;SDS011;2332;38.646;-9.154;2023-02-26T16:13:44;23.70;;;13.90;;
4638;SDS011;2332;38.646;-9.154;2023-02-26T16:16:12;36.37;;;21.43;;
4638;SDS011;2332;38.646;-9.154;2023-02-26T16:18:39;23.37;;;14.23;;
4638;SDS011;2332;38.646;-9.154;2023-02-26T16:21:05;7.57;;;5.60;;
4638;SDS011;2332;38.646;-9.154;2023-02-26T16:23:45;4.53;;;4.13;;
4638;SDS011;2332;38.646;-9.154;2023-02-26T16:26:16;7.27;;;4.40;;
4638;SDS011;2332;38.646;-9.154;2023-02-26T16:28:44;10.00;;;4.43;;
4638;SDS011;2332;38.646;-9.154;2023-02-26T16:31:18;7.53;;;4.20;;
4638;SDS011;2332;38.646;-9.154;2023-02-26T16:36:36;6.23;;;4.27;;
4638;SDS011;2332;38.646;-9.154;2023-02-26T16:41:31;8.40;;;3.40;;
4638;SDS011;2332;38.646;-9.154;2023-02-26T16:43:58;4.00;;;2.90;;
4638;SDS011;2332;38.646;-9.154;2023-02-26T16:46:46;16.33;;;3.87;;
4638;SDS011;2332;38.646;-9.154;2023-02-26T16:49:23;4.57;;;3.97;;
4638;SDS011;2332;38.646;-9.154;2023-02-26T16:51:49;10.47;;;4.87;;
4638;SDS011;2332;38.646;-9.154;2023-02-26T16:54:22;8.53;;;4.03;;
4638;SDS011;2332;38.646;-9.154;2023-02-26T16:56:58;10.23;;;4.10;;
4638;SDS011;2332;38.646;-9.154;2023-02-26T16:59:46;5.97;;;3.63;;
4638;SDS011;2332;38.646;-9.154;2023-02-26T17:02:14;7.80;;;4.27;;
4638;SDS011;2332;38.646;-9.154;2023-02-26T17:04:40;7.50;;;3.00;;
4638;SDS011;2332;38.646;-9.154;2023-02-26T17:07:15;4.73;;;2.50;;
4638;SDS011;2332;38.646;-9.154;2023-02-26T17:09:44;4.77;;;2.00;;
4638;SDS011;2332;38.646;-9.154;2023-02-26T17:14:38;3.67;;;2.40;;
4638;SDS011;2332;38.646;-9.154;2023-02-26T17:17:05;2.33;;;1.97;;
4638;SDS011;2332;38.646;-9.154;2023-02-26T17:19:30;2.30;;;2.20;;
4638;SDS011;2332;38.646;-9.154;2023-02-26T17:21:56;6.93;;;2.20;;
4638;SDS011;2332;38.646;-9.154;2023-02-26T17:24:23;6.63;;;2.60;;
4638;SDS011;2332;38.646;-9.154;2023-02-26T17:26:50;3.70;;;2.30;;